Time;durP1;ratioP1;P1;durP2;ratioP2;P2;SDS_P1;SDS_P2;PMS_P1;PMS_P2;Temp;Humidity;BMP_temperature;BMP_pressure;BME280_temperature;BME280_humidity;BME280_pressure;Samples;Min_cycle;Max_cycle;Signal;HPM_P1;HPM_P2
2023/05/25 00:00:13;;;;;;;5.07;2.27;;;;;;;;;;6084806;23;20396;-92
2023/05/25 00:02:41;;;;;;;4.53;2.90;;;;;;;;;;6108858;23;21115;-94
2023/05/25 00:05:08;;;;;;;4.23;2.90;;;;;;;;;;6084376;23;20709;-94
2023/05/25 00:07:34;;;;;;;6.00;2.67;;;;;;;;;;6084040;23;21083;-93
2023/05/25 00:10:00;;;;;;;3.80;2.40;;;;;;;;;;6084652;23;20389;-94
2023/05/25 00:12:26;;;;;;;12.07;3.20;;;;;;;;;;6047573;23;20391;-95
2023/05/25 00:14:52;;;;;;;4.27;2.57;;;;;;;;;;6023108;23;20374;-93
2023/05/25 00:17:18;;;;;;;3.90;2.30;;;;;;;;;;6026057;23;20423;-93
2023/05/25 00:19:44;;;;;;;4.73;2.83;;;;;;;;;;6024427;23;20461;-92
2023/05/25 00:22:10;;;;;;;14.40;3.33;;;;;;;;;;6025549;23;20430;-93
2023/05/25 00:24:36;;;;;;;3.80;2.50;;;;;;;;;;6022814;23;20380;-92
2023/05/25 00:27:02;;;;;;;5.20;2.37;;;;;;;;;;6024420;23;20431;-93
2023/05/25 00:29:29;;;;;;;5.77;3.00;;;;;;;;;;6024350;23;20438;-93
2023/05/25 00:31:55;;;;;;;4.10;2.40;;;;;;;;;;6026444;23;20488;-94
2023/05/25 00:34:21;;;;;;;3.37;3.03;;;;;;;;;;6025575;23;20399;-95
2023/05/25 00:36:47;;;;;;;4.53;2.57;;;;;;;;;;6024728;23;20394;-95
2023/05/25 00:39:17;;;;;;;6.10;2.93;;;;;;;;;;6025764;23;20388;-94
2023/05/25 00:41:46;;;;;;;11.17;2.90;;;;;;;;;;6023918;23;20380;-92
2023/05/25 00:44:20;;;;;;;5.10;2.93;;;;;;;;;;6097726;23;20380;-93
2023/05/25 00:46:50;;;;;;;6.63;3.10;;;;;;;;;;6086402;23;20402;-93
2023/05/25 00:49:16;;;;;;;8.27;2.77;;;;;;;;;;6108485;23;20401;-94
2023/05/25 00:51:45;;;;;;;7.57;2.60;;;;;;;;;;6136327;23;20432;-91
2023/05/25 00:54:13;;;;;;;8.97;3.43;;;;;;;;;;6137400;23;20602;-92
2023/05/25 00:56:39;;;;;;;6.73;3.03;;;;;;;;;;6136742;23;20396;-92
2023/05/25 00:59:06;;;;;;;6.30;3.63;;;;;;;;;;6135985;23;20385;-90
2023/05/25 01:01:33;;;;;;;9.87;3.63;;;;;;;;;;6134818;23;20443;-91
2023/05/25 01:03:59;;;;;;;6.37;2.87;;;;;;;;;;6136753;23;20849;-94
2023/05/25 01:06:25;;;;;;;6.03;3.50;;;;;;;;;;6137561;23;20379;-93
2023/05/25 01:08:52;;;;;;;7.90;3.43;;;;;;;;;;6137774;23;20368;-93
2023/05/25 01:11:23;;;;;;;4.27;2.57;;;;;;;;;;6135600;23;20385;-93
2023/05/25 01:13:52;;;;;;;5.03;3.10;;;;;;;;;;6136948;23;20381;-90
2023/05/25 01:16:18;;;;;;;8.00;4.10;;;;;;;;;;6136617;23;20381;-92
2023/05/25 01:18:44;;;;;;;6.43;3.20;;;;;;;;;;6136033;23;20412;-91
2023/05/25 01:21:20;;;;;;;6.20;3.13;;;;;;;;;;6136123;23;20384;-92
2023/05/25 01:23:52;;;;;;;10.03;3.33;;;;;;;;;;6137201;23;20486;-93
2023/05/25 01:26:18;;;;;;;10.97;3.10;;;;;;;;;;6137834;23;20369;-92
2023/05/25 01:28:49;;;;;;;5.57;2.67;;;;;;;;;;6138330;23;20384;-93
2023/05/25 01:31:15;;;;;;;4.70;2.43;;;;;;;;;;6138085;23;20492;-90
2023/05/25 01:33:42;;;;;;;3.67;2.70;;;;;;;;;;6137179;23;20385;-92
2023/05/25 01:36:08;;;;;;;5.20;2.70;;;;;;;;;;6108497;23;20910;-94
2023/05/25 01:38:34;;;;;;;7.83;3.20;;;;;;;;;;6108236;23;20382;-93
2023/05/25 01:41:00;;;;;;;5.50;3.27;;;;;;;;;;6107732;23;20385;-92
2023/05/25 01:43:26;;;;;;;5.87;3.30;;;;;;;;;;6103746;23;20429;-94
2023/05/25 01:45:52;;;;;;;6.00;3.00;;;;;;;;;;6107691;23;20389;-90
2023/05/25 01:48:20;;;;;;;6.40;3.53;;;;;;;;;;6104344;23;20469;-92
2023/05/25 01:50:46;;;;;;;3.93;2.93;;;;;;;;;;6107832;23;20409;-91
2023/05/25 01:53:15;;;;;;;5.67;3.17;;;;;;;;;;6129099;23;20433;-93
2023/05/25 01:55:46;;;;;;;7.50;3.40;;;;;;;;;;6105428;23;20386;-92
2023/05/25 01:58:12;;;;;;;6.53;2.83;;;;;;;;;;6106394;23;20401;-91
2023/05/25 02:00:38;;;;;;;5.10;2.53;;;;;;;;;;6110003;23;20433;-91
2023/05/25 02:03:04;;;;;;;7.93;3.07;;;;;;;;;;6106358;23;20454;-92
2023/05/25 02:05:30;;;;;;;5.67;2.90;;;;;;;;;;6107267;23;20389;-93
2023/05/25 02:07:56;;;;;;;9.33;3.50;;;;;;;;;;6128075;23;20385;-87
2023/05/25 02:10:22;;;;;;;7.80;2.80;;;;;;;;;;6133699;23;20892;-87
2023/05/25 02:12:48;;;;;;;6.87;2.93;;;;;;;;;;6154759;23;20384;-87
2023/05/25 02:15:15;;;;;;;6.70;3.83;;;;;;;;;;6130934;23;21023;-88
2023/05/25 02:17:42;;;;;;;10.13;4.00;;;;;;;;;;6130063;23;20388;-88
2023/05/25 02:20:08;;;;;;;4.97;3.30;;;;;;;;;;6133973;23;20381;-87
2023/05/25 02:22:36;;;;;;;5.73;3.30;;;;;;;;;;6131290;23;20424;-88
2023/05/25 02:25:02;;;;;;;4.50;3.27;;;;;;;;;;6132792;23;20377;-88
2023/05/25 02:27:28;;;;;;;6.03;3.03;;;;;;;;;;6130630;23;20381;-88
2023/05/25 02:29:54;;;;;;;9.00;3.47;;;;;;;;;;6132432;23;20384;-87
2023/05/25 02:32:20;;;;;;;6.60;3.27;;;;;;;;;;6130817;23;20434;-88
2023/05/25 02:34:46;;;;;;;7.20;3.40;;;;;;;;;;6132100;23;20409;-88
2023/05/25 02:37:12;;;;;;;5.00;2.90;;;;;;;;;;6131449;23;20381;-88
2023/05/25 02:39:38;;;;;;;8.50;3.50;;;;;;;;;;6131837;23;20455;-87
2023/05/25 02:42:05;;;;;;;4.30;3.13;;;;;;;;;;6131093;23;20540;-87
2023/05/25 02:44:31;;;;;;;8.30;3.13;;;;;;;;;;6159723;23;20456;-87
2023/05/25 02:46:57;;;;;;;5.67;3.50;;;;;;;;;;6130908;23;20380;-87
2023/05/25 02:49:23;;;;;;;4.83;3.00;;;;;;;;;;6131588;23;20420;-88
2023/05/25 02:51:49;;;;;;;7.57;3.50;;;;;;;;;;6131654;23;20381;-87
2023/05/25 02:54:16;;;;;;;5.20;3.30;;;;;;;;;;6133937;23;20364;-87
2023/05/25 02:56:41;;;;;;;10.47;3.50;;;;;;;;;;6132191;23;20404;-89
2023/05/25 02:59:08;;;;;;;7.37;3.70;;;;;;;;;;6131980;23;20385;-87
2023/05/25 03:01:34;;;;;;;8.40;3.70;;;;;;;;;;6130549;23;20680;-89
2023/05/25 03:04:00;;;;;;;6.87;3.40;;;;;;;;;;6130125;23;20373;-89
2023/05/25 03:06:26;;;;;;;4.30;3.10;;;;;;;;;;6130427;23;20931;-88
2023/05/25 03:08:52;;;;;;;10.17;2.87;;;;;;;;;;6130552;23;20447;-89
2023/05/25 03:11:18;;;;;;;6.37;3.57;;;;;;;;;;6129780;23;20476;-89
2023/05/25 03:13:44;;;;;;;8.77;3.70;;;;;;;;;;6133016;23;20385;-89
2023/05/25 03:16:11;;;;;;;7.30;2.87;;;;;;;;;;6130156;23;20407;-88
2023/05/25 03:18:37;;;;;;;7.83;4.10;;;;;;;;;;6131644;23;20388;-89
2023/05/25 03:21:03;;;;;;;6.00;3.83;;;;;;;;;;6131059;23;20888;-89
2023/05/25 03:23:29;;;;;;;8.53;3.47;;;;;;;;;;6156237;23;20416;-90
2023/05/25 03:25:55;;;;;;;5.37;3.57;;;;;;;;;;6131258;23;21059;-90
2023/05/25 03:28:21;;;;;;;5.47;3.73;;;;;;;;;;6133833;23;20480;-90
2023/05/25 03:30:47;;;;;;;7.73;4.33;;;;;;;;;;6156446;23;20403;-89
2023/05/25 03:33:13;;;;;;;8.30;3.17;;;;;;;;;;6159541;23;20419;-91
2023/05/25 03:35:39;;;;;;;8.70;3.17;;;;;;;;;;6132558;23;20420;-91
2023/05/25 03:38:05;;;;;;;9.07;4.20;;;;;;;;;;6134026;23;20392;-91
2023/05/25 03:40:31;;;;;;;8.23;3.20;;;;;;;;;;6132963;23;20381;-91
2023/05/25 03:42:57;;;;;;;5.97;3.63;;;;;;;;;;6133057;23;20433;-91
2023/05/25 03:45:24;;;;;;;9.20;3.57;;;;;;;;;;6156415;23;20401;-91
2023/05/25 03:47:50;;;;;;;9.17;3.10;;;;;;;;;;6132974;23;20393;-91
2023/05/25 03:50:16;;;;;;;10.00;3.50;;;;;;;;;;6136780;23;20494;-94
2023/05/25 03:52:42;;;;;;;8.87;3.30;;;;;;;;;;6137671;23;21050;-93
2023/05/25 03:55:08;;;;;;;11.57;3.50;;;;;;;;;;6137503;23;20373;-93
2023/05/25 03:57:34;;;;;;;6.77;3.27;;;;;;;;;;6137831;23;20377;-93
2023/05/25 04:00:00;;;;;;;6.93;4.30;;;;;;;;;;6136520;23;20495;-93
2023/05/25 04:02:26;;;;;;;10.57;3.90;;;;;;;;;;6138517;23;20496;-94
2023/05/25 04:04:52;;;;;;;5.97;4.13;;;;;;;;;;6140567;23;20411;-94
2023/05/25 04:07:19;;;;;;;13.23;3.60;;;;;;;;;;6138223;23;20381;-94
2023/05/25 04:09:45;;;;;;;6.40;3.37;;;;;;;;;;6141867;23;20719;-94
2023/05/25 04:12:11;;;;;;;6.13;4.10;;;;;;;;;;6139846;23;20483;-93
2023/05/25 04:14:37;;;;;;;10.10;4.37;;;;;;;;;;6140978;23;20385;-93
2023/05/25 04:17:03;;;;;;;8.20;3.73;;;;;;;;;;6139495;23;20417;-93
2023/05/25 04:19:29;;;;;;;6.53;3.60;;;;;;;;;;6109254;23;20385;-92
2023/05/25 04:21:55;;;;;;;5.87;4.43;;;;;;;;;;6086019;23;20457;-93
2023/05/25 04:24:21;;;;;;;7.07;4.03;;;;;;;;;;6085259;23;20456;-90
2023/05/25 04:26:49;;;;;;;10.07;5.30;;;;;;;;;;6105377;23;20369;-88
2023/05/25 04:29:15;;;;;;;11.10;4.63;;;;;;;;;;6081148;23;20409;-89
2023/05/25 04:31:44;;;;;;;9.00;3.60;;;;;;;;;;6079413;23;20382;-90
2023/05/25 04:34:10;;;;;;;8.70;3.87;;;;;;;;;;6081813;23;20470;-90
2023/05/25 04:36:37;;;;;;;8.83;3.90;;;;;;;;;;6078173;23;20378;-89
2023/05/25 04:39:04;;;;;;;7.23;4.13;;;;;;;;;;6086008;23;20478;-90
2023/05/25 04:41:30;;;;;;;6.13;4.53;;;;;;;;;;6079704;23;20522;-89
2023/05/25 04:43:56;;;;;;;5.93;3.73;;;;;;;;;;6082291;23;20461;-90
2023/05/25 04:46:24;;;;;;;5.97;4.20;;;;;;;;;;6080451;23;20879;-89
2023/05/25 04:48:51;;;;;;;6.43;3.70;;;;;;;;;;6081129;23;20414;-90
2023/05/25 04:51:16;;;;;;;7.30;3.83;;;;;;;;;;6126337;23;20724;-89
2023/05/25 04:53:42;;;;;;;8.17;4.37;;;;;;;;;;6135830;23;20392;-90
2023/05/25 04:56:08;;;;;;;7.63;4.43;;;;;;;;;;6131075;23;20389;-89
2023/05/25 04:58:35;;;;;;;8.60;4.43;;;;;;;;;;6133367;23;20366;-90
2023/05/25 05:01:01;;;;;;;10.87;4.30;;;;;;;;;;6133946;23;20385;-90
2023/05/25 05:03:27;;;;;;;13.70;4.60;;;;;;;;;;6134936;23;20443;-89
2023/05/25 05:05:53;;;;;;;12.70;4.60;;;;;;;;;;6133335;23;20886;-89
2023/05/25 05:08:18;;;;;;;5.43;3.27;;;;;;;;;;6133328;23;20400;-89
2023/05/25 05:10:44;;;;;;;16.63;5.07;;;;;;;;;;6133813;23;20392;-90
2023/05/25 05:13:11;;;;;;;8.73;4.30;;;;;;;;;;6134890;23;20380;-89
2023/05/25 05:15:38;;;;;;;7.40;4.10;;;;;;;;;;6160321;23;20357;-89
2023/05/25 05:18:05;;;;;;;8.00;5.10;;;;;;;;;;6132963;23;20460;-89
2023/05/25 05:20:31;;;;;;;5.10;4.30;;;;;;;;;;6132354;23;20481;-90
2023/05/25 05:22:57;;;;;;;14.90;4.37;;;;;;;;;;6131571;23;20432;-90
2023/05/25 05:25:22;;;;;;;11.00;4.97;;;;;;;;;;6159132;23;20365;-89
2023/05/25 05:27:48;;;;;;;11.93;4.73;;;;;;;;;;6132597;23;20393;-90
2023/05/25 05:30:14;;;;;;;10.33;4.10;;;;;;;;;;6134714;23;20476;-87
2023/05/25 05:32:40;;;;;;;10.80;4.33;;;;;;;;;;6135698;23;20397;-88
2023/05/25 05:35:07;;;;;;;12.07;4.70;;;;;;;;;;6135037;23;20378;-87
2023/05/25 05:37:33;;;;;;;8.30;4.40;;;;;;;;;;6134485;23;20375;-87
2023/05/25 05:39:59;;;;;;;7.17;3.87;;;;;;;;;;6161279;23;20373;-89
2023/05/25 05:42:25;;;;;;;12.93;4.10;;;;;;;;;;6132998;23;20500;-89
2023/05/25 05:44:51;;;;;;;8.03;4.30;;;;;;;;;;6134880;23;20708;-87
2023/05/25 05:47:17;;;;;;;9.00;4.27;;;;;;;;;;6162824;23;20369;-86
2023/05/25 05:49:43;;;;;;;7.70;4.27;;;;;;;;;;6137838;23;20392;-88
2023/05/25 05:52:09;;;;;;;5.77;4.30;;;;;;;;;;6132506;23;20422;-87
2023/05/25 05:54:35;;;;;;;10.43;3.53;;;;;;;;;;6137425;23;20385;-90
2023/05/25 05:57:02;;;;;;;10.17;4.80;;;;;;;;;;6133715;23;20407;-87
2023/05/25 05:59:28;;;;;;;9.57;4.90;;;;;;;;;;6133750;23;20373;-88
2023/05/25 06:01:54;;;;;;;4.90;3.30;;;;;;;;;;6137863;23;20361;-89
2023/05/25 06:04:24;;;;;;;7.00;5.90;;;;;;;;;;6135387;23;20449;-88
2023/05/25 06:06:50;;;;;;;7.00;4.27;;;;;;;;;;6137024;23;20473;-89
2023/05/25 06:09:16;;;;;;;10.63;5.10;;;;;;;;;;6132731;23;20684;-89
2023/05/25 06:11:42;;;;;;;8.10;4.70;;;;;;;;;;6135667;23;20377;-88
2023/05/25 06:14:08;;;;;;;5.33;4.10;;;;;;;;;;6134013;23;20408;-88
2023/05/25 06:16:34;;;;;;;7.63;4.83;;;;;;;;;;6137060;23;20424;-88
2023/05/25 06:19:00;;;;;;;9.63;5.10;;;;;;;;;;6133655;23;20385;-87
2023/05/25 06:21:26;;;;;;;12.87;4.97;;;;;;;;;;6140293;23;20397;-88
2023/05/25 06:23:52;;;;;;;11.13;4.97;;;;;;;;;;6134220;23;20780;-88
2023/05/25 06:26:18;;;;;;;12.90;4.43;;;;;;;;;;6132375;23;20977;-88
2023/05/25 06:28:46;;;;;;;11.87;5.03;;;;;;;;;;6136386;23;20381;-88
2023/05/25 06:31:12;;;;;;;7.90;4.30;;;;;;;;;;6134027;23;20864;-89
2023/05/25 06:33:38;;;;;;;9.73;5.83;;;;;;;;;;6134823;23;20424;-89
2023/05/25 06:36:04;;;;;;;6.83;4.80;;;;;;;;;;6131601;23;20369;-89
2023/05/25 06:38:31;;;;;;;12.87;5.10;;;;;;;;;;6135514;23;20428;-87
2023/05/25 06:41:01;;;;;;;13.60;4.80;;;;;;;;;;6129896;23;20817;-89
2023/05/25 06:43:27;;;;;;;13.47;5.53;;;;;;;;;;6134144;23;20897;-89
2023/05/25 06:45:53;;;;;;;9.20;5.83;;;;;;;;;;6132658;23;20388;-88
2023/05/25 06:48:19;;;;;;;8.97;5.40;;;;;;;;;;6130791;23;20377;-88
2023/05/25 06:50:45;;;;;;;8.77;5.30;;;;;;;;;;6080535;23;20358;-88
2023/05/25 06:55:48;;;;;;;18.10;5.67;;;;;;;;;;6156613;23;20534;-89
2023/05/25 06:58:14;;;;;;;9.23;5.43;;;;;;;;;;6138819;23;20391;-87
2023/05/25 07:00:40;;;;;;;12.90;5.40;;;;;;;;;;6139838;23;20419;-87
2023/05/25 07:03:06;;;;;;;8.80;5.20;;;;;;;;;;6141447;23;20419;-88
2023/05/25 07:05:32;;;;;;;10.53;4.43;;;;;;;;;;6137845;23;20388;-89
2023/05/25 07:07:58;;;;;;;11.57;5.87;;;;;;;;;;6140405;23;20383;-88
2023/05/25 07:10:24;;;;;;;10.33;5.47;;;;;;;;;;6136652;23;20380;-87
2023/05/25 07:12:51;;;;;;;10.63;5.00;;;;;;;;;;6137510;23;20384;-88
2023/05/25 07:15:20;;;;;;;6.67;4.70;;;;;;;;;;6138343;23;20388;-89
2023/05/25 07:17:46;;;;;;;11.57;5.10;;;;;;;;;;6137340;23;20388;-89
2023/05/25 07:20:13;;;;;;;7.50;4.60;;;;;;;;;;6134825;23;21456;-88
2023/05/25 07:22:39;;;;;;;8.00;4.03;;;;;;;;;;6157200;23;20503;-91
2023/05/25 07:25:06;;;;;;;11.80;5.43;;;;;;;;;;6187246;23;20360;-88
2023/05/25 07:27:32;;;;;;;8.87;4.70;;;;;;;;;;6159212;23;20392;-88
2023/05/25 07:29:58;;;;;;;7.07;5.03;;;;;;;;;;6162623;23;20391;-88
2023/05/25 07:32:24;;;;;;;9.63;6.10;;;;;;;;;;6159744;23;20380;-89
2023/05/25 07:34:50;;;;;;;8.90;5.13;;;;;;;;;;6161944;23;20394;-89
2023/05/25 07:37:20;;;;;;;7.47;5.67;;;;;;;;;;6159393;23;20450;-87
2023/05/25 07:39:46;;;;;;;10.43;4.53;;;;;;;;;;6162575;23;20387;-87
2023/05/25 07:42:12;;;;;;;14.97;5.47;;;;;;;;;;6160135;23;20489;-87
2023/05/25 07:44:38;;;;;;;12.33;5.63;;;;;;;;;;6164278;23;20417;-87
2023/05/25 07:47:05;;;;;;;9.17;5.57;;;;;;;;;;6161464;23;20403;-88
2023/05/25 07:49:31;;;;;;;9.50;5.13;;;;;;;;;;6161347;23;21091;-87
2023/05/25 07:51:57;;;;;;;8.63;5.53;;;;;;;;;;6163821;23;20387;-88
2023/05/25 07:54:29;;;;;;;10.87;5.03;;;;;;;;;;6167540;23;20617;-92
2023/05/25 07:57:02;;;;;;;9.57;6.13;;;;;;;;;;6173550;23;20472;-93
2023/05/25 07:59:28;;;;;;;16.03;5.50;;;;;;;;;;6166853;23;20388;-89
2023/05/25 08:01:54;;;;;;;10.33;5.33;;;;;;;;;;6165472;23;20411;-88
2023/05/25 08:04:20;;;;;;;9.43;5.33;;;;;;;;;;6185635;23;20371;-89
2023/05/25 08:06:46;;;;;;;19.10;6.17;;;;;;;;;;6160631;23;20383;-90
2023/05/25 08:09:12;;;;;;;10.60;6.00;;;;;;;;;;6159006;23;20415;-91
2023/05/25 08:11:38;;;;;;;10.07;5.73;;;;;;;;;;6162173;23;20391;-88
2023/05/25 08:14:04;;;;;;;7.73;6.07;;;;;;;;;;6158284;23;20396;-88
2023/05/25 08:16:30;;;;;;;13.07;6.00;;;;;;;;;;6164969;23;20400;-88
2023/05/25 08:18:56;;;;;;;14.07;5.50;;;;;;;;;;6162528;23;20387;-89
2023/05/25 08:21:22;;;;;;;9.20;5.70;;;;;;;;;;6160007;23;20418;-90
2023/05/25 08:23:51;;;;;;;10.73;5.97;;;;;;;;;;6156115;23;20419;-89
2023/05/25 08:26:17;;;;;;;10.30;5.77;;;;;;;;;;6164673;23;20392;-90
2023/05/25 08:28:43;;;;;;;8.43;5.20;;;;;;;;;;6163017;23;20387;-91
2023/05/25 08:31:09;;;;;;;9.10;5.77;;;;;;;;;;6167824;23;20384;-90
2023/05/25 08:33:35;;;;;;;13.03;6.60;;;;;;;;;;6163852;23;20474;-90
2023/05/25 08:36:01;;;;;;;18.10;5.57;;;;;;;;;;6167122;23;20384;-90
2023/05/25 08:38:27;;;;;;;13.53;6.80;;;;;;;;;;6163466;23;20490;-91
2023/05/25 08:40:58;;;;;;;10.37;6.40;;;;;;;;;;6164090;23;20387;-88
2023/05/25 08:43:24;;;;;;;10.60;6.97;;;;;;;;;;6162695;23;20943;-91
2023/05/25 08:45:50;;;;;;;11.20;6.30;;;;;;;;;;6162907;23;20380;-91
2023/05/25 08:48:16;;;;;;;7.70;5.60;;;;;;;;;;6163500;23;20772;-91
2023/05/25 08:50:42;;;;;;;19.43;6.60;;;;;;;;;;6166986;23;20449;-90
2023/05/25 08:53:10;;;;;;;10.60;6.00;;;;;;;;;;6163780;23;20473;-91
2023/05/25 08:55:37;;;;;;;12.70;7.03;;;;;;;;;;6164071;23;20395;-94
2023/05/25 08:58:08;;;;;;;12.23;6.53;;;;;;;;;;6163535;23;20734;-92
2023/05/25 09:00:34;;;;;;;13.13;6.30;;;;;;;;;;6192078;23;20388;-91
2023/05/25 09:03:08;;;;;;;7.67;5.90;;;;;;;;;;6162645;23;20423;-94
2023/05/25 09:05:35;;;;;;;9.67;6.40;;;;;;;;;;6168008;23;20387;-94
2023/05/25 09:08:02;;;;;;;14.20;6.40;;;;;;;;;;6167819;23;20424;-95
2023/05/25 09:13:07;;;;;;;20.97;7.40;;;;;;;;;;6186340;23;20427;-92
2023/05/25 09:15:33;;;;;;;7.53;5.93;;;;;;;;;;6165156;23;20459;-91
2023/05/25 09:17:59;;;;;;;10.90;7.13;;;;;;;;;;6163787;23;20388;-93
2023/05/25 09:20:30;;;;;;;9.17;6.00;;;;;;;;;;6135282;23;20384;-94
2023/05/25 09:22:57;;;;;;;9.33;6.57;;;;;;;;;;6139851;23;20514;-93
2023/05/25 09:25:25;;;;;;;11.13;6.93;;;;;;;;;;6140999;23;20751;-92
2023/05/25 09:27:51;;;;;;;12.10;6.00;;;;;;;;;;6140862;23;20435;-92
2023/05/25 09:30:17;;;;;;;11.23;5.77;;;;;;;;;;6139569;23;20427;-93
2023/05/25 09:32:43;;;;;;;9.90;6.50;;;;;;;;;;6143310;23;20384;-93
2023/05/25 09:35:09;;;;;;;9.20;5.50;;;;;;;;;;6139757;23;20395;-93
2023/05/25 09:37:38;;;;;;;8.23;5.50;;;;;;;;;;6164245;23;20372;-95
2023/05/25 09:40:10;;;;;;;6.93;5.80;;;;;;;;;;6143504;23;20419;-95
2023/05/25 09:42:39;;;;;;;10.13;6.90;;;;;;;;;;6145847;23;20805;-96
2023/05/25 09:45:09;;;;;;;7.37;5.90;;;;;;;;;;6175139;23;20388;-96
2023/05/25 09:47:36;;;;;;;10.70;5.83;;;;;;;;;;6151805;23;20392;-96
2023/05/25 09:50:02;;;;;;;12.10;6.37;;;;;;;;;;6151852;23;20380;-96
2023/05/25 09:52:28;;;;;;;8.77;5.87;;;;;;;;;;6147358;23;20409;-95
2023/05/25 09:54:55;;;;;;;14.70;7.30;;;;;;;;;;6142150;23;20386;-91
2023/05/25 09:57:21;;;;;;;8.40;6.50;;;;;;;;;;6135670;23;20391;-90
2023/05/25 09:59:47;;;;;;;8.43;6.10;;;;;;;;;;6136467;23;20379;-91
2023/05/25 10:02:14;;;;;;;11.87;6.30;;;;;;;;;;6135865;23;20450;-90
2023/05/25 10:04:41;;;;;;;13.80;6.57;;;;;;;;;;6139383;23;20388;-93
2023/05/25 10:07:07;;;;;;;8.10;5.23;;;;;;;;;;6136514;23;20415;-92
2023/05/25 10:09:43;;;;;;;9.77;5.73;;;;;;;;;;6138682;23;20392;-94
2023/05/25 10:12:09;;;;;;;11.30;5.30;;;;;;;;;;6088296;23;20384;-91
2023/05/25 10:14:35;;;;;;;7.70;5.77;;;;;;;;;;6163816;23;20391;-92
2023/05/25 10:17:01;;;;;;;12.53;7.63;;;;;;;;;;6141957;23;20439;-94
2023/05/25 10:19:46;;;;;;;7.07;6.00;;;;;;;;;;6148527;23;20475;-96
2023/05/25 10:22:15;;;;;;;11.70;5.77;;;;;;;;;;6152380;23;20392;-96
2023/05/25 10:25:04;;;;;;;8.47;5.53;;;;;;;;;;6150721;23;20404;-95
2023/05/25 10:27:35;;;;;;;7.80;5.17;;;;;;;;;;6172736;23;20404;-92
2023/05/25 10:30:01;;;;;;;8.80;5.87;;;;;;;;;;6142652;23;20398;-94
2023/05/25 10:32:27;;;;;;;12.50;6.43;;;;;;;;;;6143960;23;20376;-94
2023/05/25 10:34:53;;;;;;;6.20;5.60;;;;;;;;;;6146239;23;20383;-92
2023/05/25 10:37:20;;;;;;;7.07;6.37;;;;;;;;;;6166441;23;20422;-94
2023/05/25 10:39:46;;;;;;;9.13;5.40;;;;;;;;;;6140728;23;20376;-94
2023/05/25 10:42:12;;;;;;;8.47;5.63;;;;;;;;;;6143143;23;20447;-92
2023/05/25 10:44:38;;;;;;;8.40;6.33;;;;;;;;;;6139574;23;20455;-92
2023/05/25 10:47:05;;;;;;;7.30;5.17;;;;;;;;;;6138206;23;20395;-92
2023/05/25 10:49:34;;;;;;;9.20;6.20;;;;;;;;;;6140782;23;20376;-93
2023/05/25 10:52:00;;;;;;;8.87;5.90;;;;;;;;;;6136800;23;20380;-93
2023/05/25 10:54:30;;;;;;;8.50;5.90;;;;;;;;;;6140682;23;20383;-93
2023/05/25 10:57:15;;;;;;;9.70;6.10;;;;;;;;;;6160243;23;20365;-91
2023/05/25 10:59:44;;;;;;;8.60;5.10;;;;;;;;;;6138562;23;20478;-88
2023/05/25 11:02:10;;;;;;;9.87;5.77;;;;;;;;;;6129757;23;20459;-90
2023/05/25 11:04:36;;;;;;;8.33;5.53;;;;;;;;;;6133490;23;20377;-89
2023/05/25 11:07:02;;;;;;;8.93;5.20;;;;;;;;;;6133154;23;20384;-89
2023/05/25 11:09:31;;;;;;;6.80;6.10;;;;;;;;;;6160172;23;20373;-89
2023/05/25 11:12:02;;;;;;;9.47;7.07;;;;;;;;;;6130595;23;20435;-88
2023/05/25 11:14:29;;;;;;;8.20;6.27;;;;;;;;;;6155775;23;20373;-89
2023/05/25 11:17:10;;;;;;;7.90;5.60;;;;;;;;;;6131333;23;20381;-88
2023/05/25 11:19:42;;;;;;;7.70;5.57;;;;;;;;;;6158422;23;20364;-89
2023/05/25 11:22:15;;;;;;;9.23;6.50;;;;;;;;;;6130362;23;20377;-90
2023/05/25 11:24:44;;;;;;;6.63;5.90;;;;;;;;;;6155673;23;20440;-89
2023/05/25 11:27:10;;;;;;;11.90;7.00;;;;;;;;;;6129229;23;20381;-91
2023/05/25 11:29:36;;;;;;;7.57;6.00;;;;;;;;;;6131591;23;20751;-89
2023/05/25 11:32:02;;;;;;;8.53;5.97;;;;;;;;;;6130683;23;20538;-90
2023/05/25 11:34:28;;;;;;;8.20;6.07;;;;;;;;;;6132209;23;20515;-90
2023/05/25 11:36:55;;;;;;;8.27;6.50;;;;;;;;;;6130082;23;20729;-90
2023/05/25 11:39:22;;;;;;;7.40;5.40;;;;;;;;;;6133859;23;20400;-90
2023/05/25 11:41:48;;;;;;;13.83;6.60;;;;;;;;;;6133203;23;20400;-90
2023/05/25 11:44:14;;;;;;;9.40;5.03;;;;;;;;;;6133310;23;20385;-90
2023/05/25 11:46:42;;;;;;;6.60;5.67;;;;;;;;;;6133811;23;20380;-89
2023/05/25 11:49:08;;;;;;;8.17;5.83;;;;;;;;;;6158423;23;20364;-89
2023/05/25 11:51:35;;;;;;;11.23;6.50;;;;;;;;;;6131974;23;20383;-89
2023/05/25 11:54:01;;;;;;;6.63;5.83;;;;;;;;;;6135186;23;20376;-90
2023/05/25 11:56:27;;;;;;;7.20;5.40;;;;;;;;;;6133869;23;20455;-90
2023/05/25 11:58:54;;;;;;;9.13;5.63;;;;;;;;;;6135334;23;20412;-90
2023/05/25 12:01:20;;;;;;;10.83;5.97;;;;;;;;;;6131431;23;20408;-89
2023/05/25 12:03:47;;;;;;;9.93;7.10;;;;;;;;;;6131723;23;20456;-88
2023/05/25 12:06:29;;;;;;;8.33;6.73;;;;;;;;;;6130519;23;20369;-89
2023/05/25 12:08:55;;;;;;;9.80;6.53;;;;;;;;;;6133920;23;20377;-88
2023/05/25 12:11:28;;;;;;;9.80;6.53;;;;;;;;;;6130281;23;20377;-88
2023/05/25 12:13:54;;;;;;;8.77;6.47;;;;;;;;;;6130952;23;20377;-88
2023/05/25 12:16:20;;;;;;;10.50;7.27;;;;;;;;;;6132391;23;20389;-89
2023/05/25 12:18:46;;;;;;;13.73;6.90;;;;;;;;;;6132556;23;20417;-89
2023/05/25 12:23:49;;;;;;;12.10;6.60;;;;;;;;;;6154837;23;20527;-90
2023/05/25 12:26:17;;;;;;;8.53;6.20;;;;;;;;;;6131355;23;20369;-88
2023/05/25 12:29:01;;;;;;;10.87;7.30;;;;;;;;;;6071922;23;20382;-89
2023/05/25 12:31:28;;;;;;;8.90;5.80;;;;;;;;;;6044736;23;20402;-88
2023/05/25 12:34:03;;;;;;;10.17;6.10;;;;;;;;;;6069863;23;20851;-88
2023/05/25 12:36:39;;;;;;;18.93;6.27;;;;;;;;;;6046640;23;20477;-88
2023/05/25 12:39:12;;;;;;;9.03;6.53;;;;;;;;;;6054157;23;20444;-90
2023/05/25 12:41:44;;;;;;;10.50;7.30;;;;;;;;;;6070194;23;20450;-89
2023/05/25 12:44:20;;;;;;;11.63;6.53;;;;;;;;;;6074025;23;20529;-89
2023/05/25 12:46:46;;;;;;;12.83;7.37;;;;;;;;;;6048087;23;20514;-92
2023/05/25 12:49:25;;;;;;;14.17;7.03;;;;;;;;;;6050771;23;20379;-89
2023/05/25 12:51:51;;;;;;;10.43;6.63;;;;;;;;;;6048574;23;20720;-88
2023/05/25 12:54:31;;;;;;;10.03;5.97;;;;;;;;;;6051309;23;20918;-89
2023/05/25 12:56:57;;;;;;;14.90;6.90;;;;;;;;;;6050550;23;20419;-89
2023/05/25 12:59:24;;;;;;;11.40;7.40;;;;;;;;;;6073750;23;20381;-88
2023/05/25 13:01:50;;;;;;;7.40;5.60;;;;;;;;;;6133040;23;21110;-88
2023/05/25 13:04:16;;;;;;;14.70;7.23;;;;;;;;;;6110432;23;20512;-88
2023/05/25 13:06:42;;;;;;;11.80;6.80;;;;;;;;;;6107044;23;20377;-89
2023/05/25 13:09:08;;;;;;;9.23;6.00;;;;;;;;;;6112491;23;20377;-88
2023/05/25 13:11:34;;;;;;;11.40;7.13;;;;;;;;;;6133818;23;20437;-91
2023/05/25 13:14:00;;;;;;;9.63;5.60;;;;;;;;;;6133998;23;20844;-89
2023/05/25 13:16:28;;;;;;;10.27;5.87;;;;;;;;;;6107864;23;20381;-89
2023/05/25 13:18:54;;;;;;;10.67;5.90;;;;;;;;;;6110792;23;20852;-89
2023/05/25 13:21:28;;;;;;;10.40;7.13;;;;;;;;;;6116580;23;20393;-96
2023/05/25 13:23:55;;;;;;;9.70;6.47;;;;;;;;;;6146843;23;20439;-96
2023/05/25 13:26:21;;;;;;;8.13;6.00;;;;;;;;;;6111636;23;20420;-87
2023/05/25 13:28:47;;;;;;;12.67;6.13;;;;;;;;;;6108022;23;20380;-90
2023/05/25 13:31:13;;;;;;;9.17;6.70;;;;;;;;;;6108786;23;20377;-90
2023/05/25 13:33:39;;;;;;;10.50;6.30;;;;;;;;;;6108332;23;20418;-89
2023/05/25 13:36:08;;;;;;;8.97;6.40;;;;;;;;;;6109013;23;20762;-89
2023/05/25 13:38:34;;;;;;;7.47;5.80;;;;;;;;;;6109690;23;20396;-90
2023/05/25 13:41:01;;;;;;;10.17;6.40;;;;;;;;;;6107007;23;20380;-89
2023/05/25 13:43:27;;;;;;;15.53;7.77;;;;;;;;;;6105763;23;20535;-89
2023/05/25 13:45:53;;;;;;;9.20;5.40;;;;;;;;;;6133359;23;20369;-87
2023/05/25 13:48:19;;;;;;;6.37;5.57;;;;;;;;;;6105995;23;20401;-88
2023/05/25 13:50:45;;;;;;;8.03;5.37;;;;;;;;;;6105158;23;20385;-89
2023/05/25 13:53:11;;;;;;;13.40;7.60;;;;;;;;;;6104038;23;20377;-89
2023/05/25 13:55:39;;;;;;;9.53;6.83;;;;;;;;;;6104974;23;20459;-89
2023/05/25 13:58:05;;;;;;;11.77;7.47;;;;;;;;;;6104655;23;20464;-89
2023/05/25 14:00:36;;;;;;;11.93;5.80;;;;;;;;;;6114357;23;20401;-96
2023/05/25 14:03:08;;;;;;;9.23;5.87;;;;;;;;;;6080129;23;20432;-87
2023/05/25 14:05:34;;;;;;;11.10;6.13;;;;;;;;;;6106213;23;20849;-90
2023/05/25 14:08:03;;;;;;;10.73;6.57;;;;;;;;;;6104744;23;20921;-88
2023/05/25 14:10:32;;;;;;;8.60;5.73;;;;;;;;;;6106663;23;20385;-89
2023/05/25 14:12:58;;;;;;;8.83;6.50;;;;;;;;;;6103855;23;20952;-90
2023/05/25 14:15:24;;;;;;;7.80;6.27;;;;;;;;;;6135977;23;20377;-90
2023/05/25 14:17:50;;;;;;;10.67;5.40;;;;;;;;;;6105473;23;20418;-91
2023/05/25 14:20:23;;;;;;;9.77;6.60;;;;;;;;;;6109911;23;20381;-91
2023/05/25 14:22:49;;;;;;;8.07;6.00;;;;;;;;;;6107436;23;20429;-91
2023/05/25 14:25:15;;;;;;;8.30;5.87;;;;;;;;;;6103748;23;20401;-89
2023/05/25 14:27:41;;;;;;;12.90;6.67;;;;;;;;;;6103250;23;20440;-89
2023/05/25 14:30:08;;;;;;;16.60;6.80;;;;;;;;;;6106299;23;20384;-88
2023/05/25 14:32:34;;;;;;;9.80;6.70;;;;;;;;;;6104346;23;20385;-91
2023/05/25 14:35:00;;;;;;;11.33;6.47;;;;;;;;;;6104977;23;20857;-90
2023/05/25 14:37:26;;;;;;;9.13;6.00;;;;;;;;;;6124532;23;20369;-89
2023/05/25 14:39:52;;;;;;;7.27;6.23;;;;;;;;;;6068460;23;20474;-87
2023/05/25 14:42:18;;;;;;;8.50;7.03;;;;;;;;;;6042252;23;20463;-90
2023/05/25 14:44:44;;;;;;;11.20;6.10;;;;;;;;;;6044647;23;20393;-90